createdAt,value
2018-11-13T00:07:30.056Z,10.5
2018-11-13T00:22:43.676Z,10.5
2018-11-13T00:37:57.834Z,10.3
2018-11-13T00:53:12.232Z,10.2
2018-11-13T01:08:26.557Z,10.1
2018-11-13T01:23:40.425Z,10
2018-11-13T01:38:48.926Z,10
2018-11-13T01:54:08.669Z,9.9
2018-11-13T02:09:23.115Z,9.8
2018-11-13T02:24:37.280Z,9.8
2018-11-13T02:39:51.296Z,9.7
2018-11-13T02:55:05.498Z,9.7
2018-11-13T03:10:21.370Z,9.7
2018-11-13T03:25:33.470Z,9.7
2018-11-13T03:40:47.508Z,9.8
2018-11-13T03:55:54.858Z,9.8
2018-11-13T04:11:15.837Z,9.8
2018-11-13T04:26:29.944Z,9.8
2018-11-13T04:41:43.810Z,9.7
2018-11-13T04:56:57.879Z,9.7
2018-11-13T05:12:12.036Z,9.7
2018-11-13T05:27:26.467Z,9.8
2018-11-13T05:42:40.319Z,9.9
2018-11-13T05:57:54.610Z,9.9
2018-11-13T06:13:01.007Z,9.9
2018-11-13T06:28:22.857Z,10
2018-11-13T06:43:36.989Z,10
2018-11-13T06:58:51.363Z,10.1
2018-11-13T07:14:05.461Z,10.3
2018-11-13T07:29:18.774Z,10.4
2018-11-13T07:44:34.329Z,10.4
2018-11-13T07:59:48.469Z,10.7
2018-11-13T08:15:03.087Z,10.9
2018-11-13T08:30:09.696Z,11
2018-11-13T08:45:32.392Z,11.1
2018-11-13T09:00:47.085Z,11.4
2018-11-13T09:16:02.570Z,11.4
2018-11-13T09:31:16.529Z,11.6
2018-11-13T09:46:29.673Z,11.7
2018-11-13T10:01:46.757Z,11.7
2018-11-13T10:17:01.189Z,11.9
2018-11-13T10:32:15.973Z,11.8
2018-11-13T10:47:21.798Z,11.8
2018-11-13T11:02:45.793Z,11.7
2018-11-13T11:18:01.027Z,11.9
2018-11-13T11:33:15.571Z,11.9
2018-11-13T11:48:30.582Z,12.1
2018-11-13T12:03:44.504Z,12.3
2018-11-13T12:19:00.995Z,12.4
2018-11-13T12:34:16.128Z,12.5
2018-11-13T12:49:31.219Z,12.5
2018-11-13T13:04:35.446Z,12.4
2018-11-13T13:20:01.678Z,12.4
2018-11-13T13:35:16.778Z,12.3
2018-11-13T13:50:31.868Z,12.1
2018-11-13T14:05:46.576Z,12
2018-11-13T14:20:57.037Z,12
2018-11-13T14:36:16.606Z,12.1
2018-11-13T14:51:31.852Z,12.2
2018-11-13T15:06:46.908Z,12.1
2018-11-13T15:21:50.070Z,12
2018-11-13T15:37:16.749Z,12
2018-11-13T15:52:32.006Z,11.8
2018-11-13T16:07:46.622Z,11.7
2018-11-13T16:23:01.799Z,11.7
2018-11-13T16:38:10.686Z,11.6
2018-11-13T16:53:31.019Z,11.5
2018-11-13T17:08:45.816Z,11.3
2018-11-13T17:24:00.422Z,11.2
2018-11-13T17:39:15.766Z,11.3
2018-11-13T17:54:30.254Z,11.2
2018-11-13T18:09:44.662Z,11.2
2018-11-13T18:24:59.038Z,11
2018-11-13T18:40:13.663Z,10.9
2018-11-13T18:55:20.800Z,11.1
2018-11-13T19:10:42.945Z,11
2018-11-13T19:25:58.600Z,10.8
2018-11-13T19:41:12.114Z,10.8
2018-11-13T19:56:26.862Z,10.8
2018-11-13T20:11:39.573Z,10.5
2018-11-13T20:26:55.132Z,10.2
2018-11-13T20:42:09.776Z,10.9
2018-11-13T20:57:24.326Z,10.5
2018-11-13T21:12:28.960Z,10.1
2018-11-13T21:27:52.787Z,9.8
2018-11-13T21:43:06.994Z,10
2018-11-13T21:58:21.303Z,10.3
2018-11-13T22:13:35.824Z,10.2
2018-11-13T22:28:46.025Z,10.1
2018-11-13T22:44:05.034Z,10.1
2018-11-13T22:59:18.341Z,10
2018-11-13T23:14:32.602Z,9.9
2018-11-13T23:29:46.934Z,9.8
2018-11-13T23:45:00.898Z,9.6
